createdAt,value
2018-10-19T00:21:09.292Z,1021.0
2018-10-19T00:33:48.018Z,1021.0
2018-10-19T00:45:28.887Z,1021.0
2018-10-19T00:57:11.351Z,1021.0
2018-10-19T01:08:38.101Z,1021.0
2018-10-19T01:20:52.839Z,1021.0
2018-10-19T01:33:23.626Z,1021.0
2018-10-19T01:45:05.586Z,1021.0
2018-10-19T01:57:19.462Z,1021.1
2018-10-19T02:08:49.164Z,1021.1
2018-10-19T02:19:03.311Z,1021.1
2018-10-19T02:29:18.092Z,1021.0
2018-10-19T02:39:31.861Z,1021.0
2018-10-19T02:51:15.678Z,1021.1
2018-10-19T03:03:26.447Z,1021.0
2018-10-19T03:14:51.620Z,1021.0
2018-10-19T03:26:39.537Z,1020.9
2018-10-19T03:50:08.820Z,1021.0
2018-10-19T04:02:11.468Z,1021.0
2018-10-19T04:14:20.750Z,1021.0
2018-10-19T04:26:03.719Z,1021.0
2018-10-19T04:39:51.650Z,1021.1
2018-10-19T04:50:03.468Z,1021.0
2018-10-19T05:00:17.831Z,1021.1
2018-10-19T05:11:03.238Z,1021.1
2018-10-19T05:33:11.609Z,1021.2
2018-10-19T05:44:47.264Z,1021.1
2018-10-19T05:56:08.296Z,1021.3
2018-10-19T06:18:33.268Z,1021.3
2018-10-19T06:30:37.203Z,1021.5
2018-10-19T06:41:17.471Z,1021.6
2018-10-19T06:52:35.740Z,1021.7
2018-10-19T07:03:05.462Z,1021.6
2018-10-19T07:14:08.298Z,1021.6
2018-10-19T07:25:20.271Z,1021.8
2018-10-19T07:36:08.019Z,1021.7
2018-10-19T07:46:39.386Z,1021.9
2018-10-19T07:56:53.814Z,1021.9
2018-10-19T08:07:07.934Z,1021.8
2018-10-19T08:17:23.476Z,1021.8
2018-10-19T08:27:37.116Z,1021.7
2018-10-19T08:50:19.173Z,1021.4
2018-10-19T09:01:50.536Z,1021.3
2018-10-19T09:13:39.502Z,1021.3
2018-10-19T09:25:50.038Z,1021.4
2018-10-19T09:38:01.651Z,1021.5
2018-10-19T10:00:25.988Z,1021.3
2018-10-19T10:12:36.265Z,1021.2
2018-10-19T10:25:14.763Z,1020.9
2018-10-19T10:36:45.802Z,1020.9
2018-10-19T10:47:20.079Z,1020.9
2018-10-19T10:58:41.465Z,1020.8
2018-10-19T11:08:55.480Z,1020.7
2018-10-19T11:20:54.841Z,1020.5
2018-10-19T11:43:25.159Z,1020.2
2018-10-19T11:55:14.209Z,1020.1
2018-10-19T12:24:06.921Z,1020.1
2018-10-19T12:35:12.412Z,1020.0
2018-10-19T12:46:55.372Z,1020.0
2018-10-19T12:58:54.105Z,1020.0
2018-10-19T13:10:27.102Z,1019.5
2018-10-19T13:21:41.712Z,1020.2
2018-10-19T13:33:04.196Z,1019.9
2018-10-19T13:45:12.196Z,1019.8
2018-10-19T13:56:58.804Z,1020.2
2018-10-19T14:08:37.450Z,1019.8
2018-10-19T14:20:43.146Z,1019.7
2018-10-19T14:31:55.421Z,1019.5
2018-10-19T14:44:52.153Z,1019.3
2018-10-19T14:55:37.807Z,1019.0
2018-10-19T15:06:03.708Z,1019.2
2018-10-19T15:16:53.311Z,1019.1
2018-10-19T15:27:08.097Z,1019.3
2018-10-19T15:47:56.167Z,1019.5
2018-10-19T15:58:11.504Z,1019.6
2018-10-19T16:19:25.333Z,1019.8
2018-10-19T16:30:22.763Z,1019.8
2018-10-19T16:40:40.101Z,1019.8
2018-10-19T17:04:20.868Z,1020.0
2018-10-19T17:15:08.915Z,1020.0
2018-10-19T17:25:55.175Z,1020.3
2018-10-19T17:36:15.821Z,1020.5
2018-10-19T17:46:35.474Z,1020.7
2018-10-19T17:56:49.797Z,1020.8
2018-10-19T18:07:40.460Z,1021.1
2018-10-19T18:18:31.498Z,1021.2
2018-10-19T18:57:48.537Z,1021.2
2018-10-19T19:08:39.134Z,1021.2
2018-10-19T19:19:30.691Z,1021.3
2018-10-19T19:45:08.202Z,1021.5
2018-10-19T19:55:24.129Z,1021.6
2018-10-19T20:06:13.682Z,1021.8
2018-10-19T20:16:28.749Z,1021.9
2018-10-19T20:26:43.933Z,1022.0
2018-10-19T20:37:37.442Z,1021.9
2018-10-19T20:48:33.630Z,1021.9
2018-10-19T20:59:20.462Z,1021.8
2018-10-19T21:09:36.644Z,1021.9
2018-10-19T21:19:53.001Z,1022.1
2018-10-19T21:31:12.873Z,1022.0
2018-10-19T21:42:33.739Z,1022.3
2018-10-19T21:53:21.957Z,1022.2
2018-10-19T22:04:09.494Z,1022.4
2018-10-19T22:14:25.685Z,1022.4
2018-10-19T22:24:41.561Z,1022.5
2018-10-19T22:45:52.033Z,1022.5
2018-10-19T22:56:53.578Z,1022.6
2018-10-19T23:07:10.820Z,1022.4
2018-10-19T23:17:26.726Z,1022.5
2018-10-19T23:27:44.253Z,1022.8
2018-10-19T23:38:49.434Z,1022.7
2018-10-19T23:49:05.871Z,1022.7
2018-10-19T23:59:22.440Z,1022.9
